Terminal Aerodrome Forecast
Issued by NWS Shreveport, LA

Home | Current Version | Previous Version | Text Only | Print | Product List | Glossary On
Versions: 1 2 3 4 5 6 7 8 9 10 11 12 13 14 15 16 17 18 19 20 21 22 23
000
FTUS44 KSHV 250553
TAFLFK
TAF
KLFK 250553Z 2506/2606 VRB03KT 6SM BR VCSH BKN025
      TEMPO 2506/2509 4SM BR BKN015
     FM251200 18005KT 2SM BR BKN015
     FM251500 22010G15KT P6SM SCT030
     FM260000 21006KT P6SM SKC=

USA.gov is the U.S. government's official web portal to all federal, state and local government web resources and services.